createdAt,value
2018-07-06T00:02:05.285Z,99479.69
2018-07-06T00:04:52.153Z,99482.27
2018-07-06T00:07:32.922Z,99478.77
2018-07-06T00:10:19.937Z,99479.88
2018-07-06T00:13:00.609Z,99477.05
2018-07-06T00:15:41.317Z,99483.84
2018-07-06T00:18:28.052Z,99478.62
2018-07-06T00:21:14.736Z,99479.14
2018-07-06T00:24:01.688Z,99479.42
2018-07-06T00:26:42.733Z,99479.38
2018-07-06T00:29:29.430Z,99478.61
2018-07-06T00:32:16.354Z,99471.63
2018-07-06T00:35:02.989Z,99475.03
2018-07-06T00:37:49.857Z,99477.88
2018-07-06T00:40:36.465Z,99485.66
2018-07-06T00:43:23.497Z,99481.67
2018-07-06T00:46:10.310Z,99479.61
2018-07-06T00:48:57.154Z,99476.28
2018-07-06T00:51:37.824Z,99472.94
2018-07-06T00:54:18.658Z,99471.88
2018-07-06T00:57:05.463Z,99469.75
2018-07-06T00:59:52.141Z,99465.79
2018-07-06T01:02:38.851Z,99465.80
2018-07-06T01:05:25.661Z,99465.80
2018-07-06T01:08:12.540Z,99463.97
2018-07-06T01:10:53.148Z,99460.58
2018-07-06T01:13:39.797Z,99465.73
2018-07-06T01:16:26.657Z,99459.47
2018-07-06T01:19:13.422Z,99465.45
2018-07-06T01:22:00.753Z,99458.88
2018-07-06T01:24:47.933Z,99464.66
2018-07-06T01:27:34.858Z,99462.84
2018-07-06T01:30:21.585Z,99469.66
2018-07-06T01:33:08.672Z,99467.32
2018-07-06T01:35:55.788Z,99465.44
2018-07-06T01:38:43.214Z,99463.57
2018-07-06T01:41:30.232Z,99453.89
2018-07-06T01:44:17.282Z,99454.66
2018-07-06T01:47:04.133Z,99452.21
2018-07-06T01:49:51.013Z,99452.78
2018-07-06T01:52:31.776Z,99455.66
2018-07-06T01:55:18.377Z,99456.36
2018-07-06T01:58:05.282Z,99457.80
2018-07-06T02:00:52.241Z,99457.15
2018-07-06T02:03:38.933Z,99461.95
2018-07-06T02:06:19.951Z,99460.73
2018-07-06T02:09:07.494Z,99463.97
2018-07-06T02:11:55.150Z,99462.38
2018-07-06T02:14:41.836Z,99460.64
2018-07-06T02:17:29.037Z,99462.58
2018-07-06T02:20:15.980Z,99464.15
2018-07-06T02:23:02.965Z,99459.45
2018-07-06T02:25:49.807Z,99465.17
2018-07-06T02:28:36.449Z,99457.34
2018-07-06T02:31:23.395Z,99460.73
2018-07-06T02:34:10.289Z,99458.33
2018-07-06T02:36:57.392Z,99452.34
2018-07-06T02:39:44.751Z,99445.27
2018-07-06T02:42:31.737Z,99450.48
2018-07-06T02:45:18.421Z,99447.02
2018-07-06T02:48:05.288Z,99440.53
2018-07-06T02:50:52.544Z,99443.45
2018-07-06T02:53:33.987Z,99445.72
2018-07-06T02:56:20.846Z,99444.19
2018-07-06T02:59:01.609Z,99443.96
2018-07-06T03:01:42.593Z,99445.70
2018-07-06T03:04:29.280Z,99444.95
2018-07-06T03:07:16.613Z,99446.28
2018-07-06T03:10:03.410Z,99449.33
2018-07-06T03:12:50.533Z,99447.22
2018-07-06T03:15:37.208Z,99451.17
2018-07-06T03:18:24.082Z,99455.87
2018-07-06T03:21:10.823Z,99462.42
2018-07-06T03:23:57.746Z,99463.48
2018-07-06T03:26:44.518Z,99474.00
2018-07-06T03:29:31.536Z,99475.62
2018-07-06T03:32:18.317Z,99485.08
2018-07-06T03:35:05.196Z,99485.50
2018-07-06T03:37:45.860Z,99483.37
2018-07-06T03:40:26.898Z,99479.87
2018-07-06T03:43:13.614Z,99476.22
2018-07-06T03:46:00.599Z,99479.72
2018-07-06T03:48:47.252Z,99475.06
2018-07-06T03:51:34.369Z,99474.28
2018-07-06T03:54:21.084Z,99473.21
2018-07-06T03:57:07.936Z,99475.37
2018-07-06T03:59:54.796Z,99468.57
2018-07-06T04:02:41.761Z,99465.67
2018-07-06T04:05:28.428Z,99474.30
2018-07-06T04:08:15.449Z,99475.16
2018-07-06T04:11:02.312Z,99474.06
2018-07-06T04:13:49.105Z,99477.97
2018-07-06T04:16:36.045Z,99483.44
2018-07-06T04:19:22.934Z,99477.75
2018-07-06T04:22:09.584Z,99474.86
2018-07-06T04:24:56.575Z,99477.23
2018-07-06T04:27:43.641Z,99476.98
2018-07-06T04:30:30.920Z,99475.48
2018-07-06T04:33:17.520Z,99474.96
2018-07-06T04:36:04.208Z,99480.70
2018-07-06T04:38:51.237Z,99487.73
2018-07-06T04:41:37.991Z,99482.02
2018-07-06T04:44:24.769Z,99490.92
2018-07-06T04:47:11.573Z,99493.52
2018-07-06T04:49:58.153Z,99492.47
2018-07-06T04:52:44.817Z,99495.53
2018-07-06T04:55:31.669Z,99497.64
2018-07-06T04:58:18.289Z,99495.11
2018-07-06T05:01:05.009Z,99497.25
2018-07-06T05:03:52.064Z,99497.48
2018-07-06T05:06:38.886Z,99498.47
2018-07-06T05:09:25.990Z,99497.34
2018-07-06T05:12:12.789Z,99493.50
2018-07-06T05:15:00.703Z,99491.89
2018-07-06T05:17:47.310Z,99490.32
2018-07-06T05:20:34.362Z,99491.31
2018-07-06T05:23:21.257Z,99486.42
2018-07-06T05:26:08.558Z,99491.77
2018-07-06T05:28:55.298Z,99495.31
2018-07-06T05:31:42.045Z,99490.59
2018-07-06T05:34:29.094Z,99492.16
2018-07-06T05:37:16.102Z,99492.20
2018-07-06T05:40:02.941Z,99488.12
2018-07-06T05:42:49.869Z,99493.59
2018-07-06T05:45:30.424Z,99484.96
2018-07-06T05:48:17.181Z,99492.88
2018-07-06T05:51:04.090Z,99486.72
2018-07-06T05:53:51.423Z,99485.99
2018-07-06T05:56:38.278Z,99486.17
2018-07-06T05:59:25.551Z,99482.89
2018-07-06T06:02:12.529Z,99483.92
2018-07-06T06:04:53.470Z,99493.64
2018-07-06T06:07:27.470Z,99489.09
2018-07-06T06:09:58.295Z,99487.11
2018-07-06T06:12:28.945Z,99488.63
2018-07-06T06:15:00.141Z,99489.67
2018-07-06T06:17:31.025Z,99489.98
2018-07-06T06:20:01.744Z,99488.88
2018-07-06T06:22:32.426Z,99486.84
2018-07-06T06:25:02.570Z,99482.80
2018-07-06T06:27:33.254Z,99484.00
2018-07-06T06:30:04.082Z,99480.27
2018-07-06T06:32:34.968Z,99475.95
2018-07-06T06:35:05.921Z,99479.36
2018-07-06T06:37:36.661Z,99483.47
2018-07-06T06:40:07.523Z,99473.41
2018-07-06T06:42:38.269Z,99477.19
2018-07-06T06:45:09.121Z,99476.20
2018-07-06T06:47:39.315Z,99470.93
2018-07-06T06:50:10.166Z,99467.44
2018-07-06T06:52:41.005Z,99468.05
2018-07-06T06:55:12.051Z,99469.80
2018-07-06T06:57:42.237Z,99469.67
2018-07-06T07:00:13.065Z,99468.19
2018-07-06T07:02:43.914Z,99466.49
2018-07-06T07:05:14.785Z,99472.85
2018-07-06T07:07:45.670Z,99471.82
2018-07-06T07:10:16.520Z,99468.11
2018-07-06T07:12:47.322Z,99463.69
2018-07-06T07:15:18.192Z,99462.71
2018-07-06T07:17:49.276Z,99460.75
2018-07-06T07:20:19.641Z,99466.30
2018-07-06T07:22:50.377Z,99459.78
2018-07-06T07:25:21.310Z,99461.53
2018-07-06T07:27:52.098Z,99460.64
2018-07-06T07:30:23.031Z,99455.16
2018-07-06T07:32:53.750Z,99456.66
2018-07-06T07:35:23.924Z,99451.59
2018-07-06T07:37:54.590Z,99455.88
2018-07-06T07:40:25.539Z,99453.50
2018-07-06T07:42:56.489Z,99454.50
2018-07-06T07:45:26.872Z,99453.58
2018-07-06T07:47:57.721Z,99453.91
2018-07-06T07:50:28.493Z,99446.66
2018-07-06T07:53:15.482Z,99448.66
2018-07-06T07:55:46.417Z,99443.42
2018-07-06T07:58:17.115Z,99446.34
2018-07-06T08:00:48.154Z,99439.34
2018-07-06T08:03:18.172Z,99437.24
2018-07-06T08:05:49.087Z,99435.44
2018-07-06T08:08:19.753Z,99434.55
2018-07-06T08:10:50.545Z,99429.81
2018-07-06T08:13:21.345Z,99435.59
2018-07-06T08:15:53.682Z,99433.14
2018-07-06T08:18:24.409Z,99434.48
2018-07-06T08:20:55.258Z,99432.72
2018-07-06T08:23:25.945Z,99436.86
2018-07-06T08:25:56.855Z,99440.67
2018-07-06T08:28:27.555Z,99434.36
2018-07-06T08:30:58.469Z,99438.43
2018-07-06T08:33:33.328Z,99427.33
2018-07-06T08:36:24.074Z,99433.52
2018-07-06T08:38:54.748Z,99435.94
2018-07-06T08:41:25.076Z,99428.82
2018-07-06T08:43:56.045Z,99428.83
2018-07-06T08:46:26.937Z,99423.95
2018-07-06T08:48:57.514Z,99413.84
2018-07-06T08:51:28.317Z,99423.17
2018-07-06T08:53:58.996Z,99423.48
2018-07-06T08:56:29.914Z,99423.56
2018-07-06T08:59:00.545Z,99426.28
2018-07-06T09:01:31.345Z,99422.17
2018-07-06T09:04:02.376Z,99421.19
2018-07-06T09:06:33.073Z,99413.22
2018-07-06T09:09:03.821Z,99413.66
2018-07-06T09:11:34.089Z,99406.81
2018-07-06T09:14:04.858Z,99401.61
2018-07-06T09:16:35.661Z,99405.10
2018-07-06T09:19:06.369Z,99400.66
2018-07-06T09:21:37.674Z,99403.27
2018-07-06T09:24:09.143Z,99394.71
2018-07-06T09:26:39.922Z,99393.45
2018-07-06T09:29:10.493Z,99394.31
2018-07-06T09:31:41.205Z,99400.89
2018-07-06T09:34:11.956Z,99403.47
2018-07-06T09:36:43.263Z,99392.16
2018-07-06T09:39:14.361Z,99391.36
2018-07-06T09:41:45.170Z,99390.69
2018-07-06T09:44:15.645Z,99387.86
2018-07-06T09:46:46.705Z,99388.06
2018-07-06T09:49:17.385Z,99385.31
2018-07-06T09:51:48.212Z,99384.69
2018-07-06T09:54:18.826Z,99384.73
2018-07-06T09:56:49.738Z,99383.06
2018-07-06T09:59:20.593Z,99381.09
2018-07-06T10:01:51.470Z,99377.88
2018-07-06T10:04:22.182Z,99377.00
2018-07-06T10:06:52.920Z,99366.62
2018-07-06T10:09:23.785Z,99368.20
2018-07-06T10:11:54.565Z,99370.15
2018-07-06T10:14:25.300Z,99367.88
2018-07-06T10:16:56.149Z,99365.89
2018-07-06T10:19:26.928Z,99360.70
2018-07-06T10:21:57.479Z,99354.95
2018-07-06T10:24:28.157Z,99349.69
2018-07-06T10:26:59.061Z,99347.02
2018-07-06T10:29:47.987Z,99345.31
2018-07-06T10:32:26.473Z,99347.52
2018-07-06T10:34:57.468Z,99345.44
2018-07-06T10:37:28.345Z,99345.22
2018-07-06T10:39:59.034Z,99340.20
2018-07-06T10:42:29.894Z,99332.96
2018-07-06T10:45:00.550Z,99332.09
2018-07-06T10:47:31.338Z,99330.14
2018-07-06T10:50:01.473Z,99332.52
2018-07-06T10:52:32.230Z,99325.13
2018-07-06T10:55:03.013Z,99324.94
2018-07-06T10:57:33.983Z,99322.91
2018-07-06T11:00:04.745Z,99322.92
2018-07-06T11:02:36.141Z,99315.66
2018-07-06T11:05:06.444Z,99317.23
2018-07-06T11:07:37.142Z,99319.35
2018-07-06T11:10:07.910Z,99314.66
2018-07-06T11:12:38.725Z,99316.86
2018-07-06T11:15:09.429Z,99310.10
2018-07-06T11:17:40.201Z,99306.44
2018-07-06T11:20:10.749Z,99307.84
2018-07-06T11:22:41.592Z,99302.41
2018-07-06T11:25:11.909Z,99294.82
2018-07-06T11:27:42.739Z,99300.50
2018-07-06T11:30:13.478Z,99301.17
2018-07-06T11:32:44.261Z,99292.03
2018-07-06T11:35:14.842Z,99286.78
2018-07-06T11:37:45.678Z,99286.19
2018-07-06T11:40:16.462Z,99282.73
2018-07-06T11:42:47.414Z,99278.78
2018-07-06T11:45:18.185Z,99278.19
2018-07-06T11:47:48.917Z,99274.67
2018-07-06T11:50:19.608Z,99269.73
2018-07-06T11:52:50.420Z,99271.02
2018-07-06T11:55:21.125Z,99263.30
2018-07-06T11:57:52.082Z,99262.52
2018-07-06T12:00:22.897Z,99260.03
2018-07-06T12:02:53.470Z,99261.84
2018-07-06T12:05:24.202Z,99257.88
2018-07-06T12:07:54.993Z,99251.61
2018-07-06T12:10:25.722Z,99247.27
2018-07-06T12:12:56.705Z,99248.09
2018-07-06T12:15:27.299Z,99243.47
2018-07-06T12:17:58.226Z,99238.80
2018-07-06T12:20:28.844Z,99238.87
2018-07-06T12:22:59.717Z,99227.81
2018-07-06T12:25:30.429Z,99228.66
2018-07-06T12:28:01.395Z,99228.91
2018-07-06T12:30:31.990Z,99237.70
2018-07-06T12:33:02.977Z,99236.80
2018-07-06T12:35:33.769Z,99226.16
2018-07-06T12:38:04.545Z,99223.17
2018-07-06T12:40:35.185Z,99224.19
2018-07-06T12:43:06.110Z,99221.86
2018-07-06T12:45:36.962Z,99214.00
2018-07-06T12:48:07.747Z,99213.41
2018-07-06T12:50:38.481Z,99216.52
2018-07-06T12:53:09.357Z,99223.16
2018-07-06T12:55:40.050Z,99228.68
2018-07-06T12:58:10.860Z,99224.25
2018-07-06T13:00:41.624Z,99216.97
2018-07-06T13:03:12.613Z,99219.67
2018-07-06T13:05:43.294Z,99214.03
2018-07-06T13:08:14.173Z,99206.95
2018-07-06T13:10:44.785Z,99209.38
2018-07-06T13:13:14.982Z,99212.14
2018-07-06T13:15:45.556Z,99212.27
2018-07-06T13:18:16.598Z,99215.39
2018-07-06T13:20:47.214Z,99217.98
2018-07-06T13:23:18.045Z,99214.19
2018-07-06T13:25:48.579Z,99210.61
2018-07-06T13:28:20.446Z,99210.18
2018-07-06T13:30:51.141Z,99210.70
2018-07-06T13:33:22.051Z,99201.28
2018-07-06T13:35:52.280Z,99199.89
2018-07-06T13:38:23.145Z,99197.23
2018-07-06T13:40:53.879Z,99192.75
2018-07-06T13:43:24.704Z,99194.91
2018-07-06T13:45:55.669Z,99193.92
2018-07-06T13:48:26.429Z,99186.71
2018-07-06T13:50:57.132Z,99184.33
2018-07-06T13:53:27.822Z,99182.67
2018-07-06T13:55:58.710Z,99184.77
2018-07-06T13:58:29.454Z,99179.55
2018-07-06T14:01:00.146Z,99177.30
2018-07-06T14:03:30.906Z,99180.47
2018-07-06T14:06:01.680Z,99177.02
2018-07-06T14:08:32.370Z,99173.26
2018-07-06T14:11:02.918Z,99170.41
2018-07-06T14:13:33.625Z,99169.80
2018-07-06T14:16:04.302Z,99172.34
2018-07-06T14:18:35.165Z,99168.13
2018-07-06T14:21:05.858Z,99172.48
2018-07-06T14:23:36.634Z,99163.52
2018-07-06T14:26:07.352Z,99168.75
2018-07-06T14:28:38.294Z,99166.31
2018-07-06T14:31:08.524Z,99170.52
2018-07-06T14:33:38.737Z,99165.81
2018-07-06T14:36:08.877Z,99169.57
2018-07-06T14:38:39.208Z,99172.86
2018-07-06T14:41:10.122Z,99166.72
2018-07-06T14:43:40.841Z,99169.75
2018-07-06T14:46:11.990Z,99175.29
2018-07-06T14:48:42.185Z,99167.37
2018-07-06T14:51:12.906Z,99166.59
2018-07-06T14:53:43.609Z,99170.17
2018-07-06T14:56:14.673Z,99170.52
2018-07-06T14:58:45.266Z,99170.16
2018-07-06T15:01:16.117Z,99172.02
2018-07-06T15:03:46.845Z,99181.53
2018-07-06T15:06:18.195Z,99184.55
2018-07-06T15:08:48.885Z,99193.76
2018-07-06T15:11:19.090Z,99189.62
2018-07-06T15:13:49.745Z,99194.56
2018-07-06T15:16:20.584Z,99194.89
2018-07-06T15:18:50.984Z,99186.75
2018-07-06T15:21:21.400Z,99180.83
2018-07-06T15:23:51.942Z,99181.66
2018-07-06T15:26:22.273Z,99185.50
2018-07-06T15:28:53.153Z,99175.25
2018-07-06T15:31:23.870Z,99168.75
2018-07-06T15:33:54.473Z,99173.57
2018-07-06T15:36:25.214Z,99171.70
2018-07-06T15:38:55.948Z,99177.52
2018-07-06T15:41:26.585Z,99182.28
2018-07-06T15:43:57.430Z,99186.18
2018-07-06T15:46:28.246Z,99194.95
2018-07-06T15:48:59.637Z,99192.79
2018-07-06T15:51:30.413Z,99185.34
2018-07-06T15:54:00.589Z,99180.56
2018-07-06T15:56:31.499Z,99180.52
2018-07-06T15:59:02.869Z,99188.77
2018-07-06T16:01:34.200Z,99199.17
2018-07-06T16:04:05.187Z,99188.41
2018-07-06T16:06:36.925Z,99190.40
2018-07-06T16:09:08.295Z,99181.97
2018-07-06T16:11:39.067Z,99185.72
2018-07-06T16:14:10.094Z,99184.77
2018-07-06T16:16:40.813Z,99179.77
2018-07-06T16:19:11.701Z,99185.64
2018-07-06T16:21:42.454Z,99180.78
2018-07-06T16:24:13.408Z,99187.63
2018-07-06T16:26:44.297Z,99190.22
2018-07-06T16:29:15.072Z,99198.62
2018-07-06T16:31:45.740Z,99200.61
2018-07-06T16:34:16.506Z,99209.11
2018-07-06T16:36:47.289Z,99219.38
2018-07-06T16:39:18.221Z,99226.55
2018-07-06T16:41:48.818Z,99226.73
2018-07-06T16:44:19.662Z,99230.53
2018-07-06T16:46:50.509Z,99238.34
2018-07-06T16:49:21.407Z,99246.75
2018-07-06T16:51:52.104Z,99256.38
2018-07-06T16:54:22.785Z,99252.17
2018-07-06T16:56:53.452Z,99250.19
2018-07-06T16:59:24.498Z,99251.84
2018-07-06T17:01:55.186Z,99258.14
2018-07-06T17:04:26.062Z,99251.12
2018-07-06T17:06:56.803Z,99255.43
2018-07-06T17:09:27.597Z,99261.94
2018-07-06T17:11:58.262Z,99262.25
2018-07-06T17:14:29.040Z,99263.13
2018-07-06T17:16:59.773Z,99274.39
2018-07-06T17:19:30.497Z,99271.21
2018-07-06T17:22:01.268Z,99264.86
2018-07-06T17:24:32.077Z,99257.34
2018-07-06T17:27:02.818Z,99245.11
2018-07-06T17:29:33.750Z,99229.23
2018-07-06T17:32:04.439Z,99217.84
2018-07-06T17:34:35.305Z,99221.35
2018-07-06T17:37:06.198Z,99221.95
2018-07-06T17:39:36.969Z,99221.38
2018-07-06T17:42:07.676Z,99216.20
2018-07-06T17:44:38.377Z,99215.55
2018-07-06T17:47:09.038Z,99210.97
2018-07-06T17:49:39.739Z,99208.84
2018-07-06T17:52:10.209Z,99208.30
2018-07-06T17:54:41.081Z,99205.98
2018-07-06T17:57:11.216Z,99201.19
2018-07-06T17:59:41.945Z,99207.38
2018-07-06T18:02:12.637Z,99208.68
2018-07-06T18:04:43.413Z,99222.94
2018-07-06T18:07:14.297Z,99236.70
2018-07-06T18:09:45.062Z,99246.13
2018-07-06T18:12:15.837Z,99244.27
2018-07-06T18:14:46.653Z,99252.53
2018-07-06T18:17:17.375Z,99261.50
2018-07-06T18:19:47.523Z,99273.95
2018-07-06T18:22:18.110Z,99278.59
2018-07-06T18:24:48.873Z,99281.95
2018-07-06T18:27:19.483Z,99281.64
2018-07-06T18:29:49.681Z,99292.91
2018-07-06T18:32:20.405Z,99299.36
2018-07-06T18:34:51.270Z,99298.95
2018-07-06T18:37:21.491Z,99306.69
2018-07-06T18:39:52.453Z,99311.88
2018-07-06T18:42:23.127Z,99313.39
2018-07-06T18:44:53.938Z,99319.11
2018-07-06T18:47:24.601Z,99320.44
2018-07-06T18:49:55.225Z,99324.24
2018-07-06T18:52:25.960Z,99326.04
2018-07-06T18:54:57.103Z,99324.83
2018-07-06T18:57:27.737Z,99324.08
2018-07-06T18:59:58.737Z,99322.86
2018-07-06T19:02:29.413Z,99327.77
2018-07-06T19:05:00.286Z,99329.39
2018-07-06T19:07:30.965Z,99338.13
2018-07-06T19:10:01.755Z,99333.03
2018-07-06T19:12:32.525Z,99329.82
2018-07-06T19:15:03.221Z,99327.82
2018-07-06T19:17:33.399Z,99319.87
2018-07-06T19:20:04.313Z,99322.23
2018-07-06T19:22:34.964Z,99321.97
2018-07-06T19:25:05.654Z,99323.17
2018-07-06T19:27:36.000Z,99323.06
2018-07-06T19:30:06.963Z,99319.02
2018-07-06T19:32:37.587Z,99323.68
2018-07-06T19:35:08.145Z,99318.74
2018-07-06T19:37:38.773Z,99323.95
2018-07-06T19:40:09.995Z,99322.99
2018-07-06T19:42:40.733Z,99322.05
2018-07-06T19:45:11.291Z,99312.59
2018-07-06T19:47:42.072Z,99315.63
2018-07-06T19:50:13.841Z,99309.63
2018-07-06T19:52:44.544Z,99313.35
2018-07-06T19:55:15.276Z,99309.45
2018-07-06T19:57:46.024Z,99313.47
2018-07-06T20:00:16.984Z,99307.91
2018-07-06T20:02:47.676Z,99307.16
2018-07-06T20:05:18.610Z,99307.69
2018-07-06T20:07:49.250Z,99311.89
2018-07-06T20:10:20.430Z,99317.37
2018-07-06T20:12:50.906Z,99316.92
2018-07-06T20:15:21.233Z,99308.34
2018-07-06T20:17:52.025Z,99313.83
2018-07-06T20:20:22.930Z,99319.34
2018-07-06T20:22:53.853Z,99318.03
2018-07-06T20:25:24.554Z,99316.16
2018-07-06T20:27:54.593Z,99321.80
2018-07-06T20:30:25.125Z,99327.51
2018-07-06T20:32:55.704Z,99330.36
2018-07-06T20:35:26.466Z,99336.35
2018-07-06T20:37:57.158Z,99338.08
2018-07-06T20:40:28.014Z,99339.06
2018-07-06T20:42:58.608Z,99340.26
2018-07-06T20:45:30.158Z,99341.83
2018-07-06T20:48:00.958Z,99343.82
2018-07-06T20:50:31.897Z,99352.87
2018-07-06T20:53:02.665Z,99355.83
2018-07-06T20:55:33.410Z,99361.73
2018-07-06T20:58:04.192Z,99365.86
2018-07-06T21:00:34.970Z,99371.34
2018-07-06T21:03:05.750Z,99373.95
2018-07-06T21:05:36.650Z,99385.44
2018-07-06T21:08:07.527Z,99397.11
2018-07-06T21:10:38.388Z,99398.05
2018-07-06T21:13:09.107Z,99411.70
2018-07-06T21:15:39.890Z,99408.78
2018-07-06T21:18:10.617Z,99403.95
2018-07-06T21:20:41.790Z,99383.41
2018-07-06T21:23:11.756Z,99385.45
2018-07-06T21:25:43.170Z,99381.73
2018-07-06T21:28:13.252Z,99383.53
2018-07-06T21:30:44.150Z,99383.86
2018-07-06T21:33:14.915Z,99385.70
2018-07-06T21:35:45.725Z,99388.56
2018-07-06T21:38:16.383Z,99389.97
2018-07-06T21:40:47.322Z,99394.92
2018-07-06T21:43:18.101Z,99398.06
2018-07-06T21:45:48.845Z,99401.51
2018-07-06T21:48:19.521Z,99399.09
2018-07-06T21:50:50.877Z,99400.03
2018-07-06T21:53:21.587Z,99394.80
2018-07-06T21:55:57.433Z,99390.39
2018-07-06T21:58:28.170Z,99390.71
2018-07-06T22:00:59.037Z,99388.02
2018-07-06T22:03:29.571Z,99385.63
2018-07-06T22:06:00.254Z,99384.09
2018-07-06T22:08:31.349Z,99392.52
2018-07-06T22:11:02.177Z,99388.76
2018-07-06T22:13:32.805Z,99391.78
2018-07-06T22:16:04.623Z,99392.83
2018-07-06T22:18:35.385Z,99390.42
2018-07-06T22:21:06.238Z,99385.92
2018-07-06T22:23:36.907Z,99393.52
2018-07-06T22:26:07.693Z,99391.98
2018-07-06T22:28:38.349Z,99397.00
2018-07-06T22:31:09.470Z,99391.21
2018-07-06T22:33:40.121Z,99392.47
2018-07-06T22:36:10.918Z,99388.51
2018-07-06T22:38:41.566Z,99382.95
2018-07-06T22:41:12.453Z,99389.75
2018-07-06T22:43:44.718Z,99387.34
2018-07-06T22:46:15.529Z,99392.02
2018-07-06T22:48:46.158Z,99392.23
2018-07-06T22:51:16.953Z,99398.19
2018-07-06T22:53:47.601Z,99390.58
2018-07-06T22:56:18.205Z,99388.06
2018-07-06T22:58:48.866Z,99389.75
2018-07-06T23:01:19.662Z,99388.39
2018-07-06T23:03:50.379Z,99380.80
2018-07-06T23:06:21.217Z,99392.83
2018-07-06T23:08:51.960Z,99384.50
2018-07-06T23:11:22.623Z,99381.91
2018-07-06T23:13:53.267Z,99379.28
2018-07-06T23:16:23.933Z,99381.16
2018-07-06T23:18:54.132Z,99382.18
2018-07-06T23:21:25.029Z,99379.55
2018-07-06T23:23:55.689Z,99376.91
2018-07-06T23:26:26.526Z,99374.78
2018-07-06T23:28:57.250Z,99373.22
2018-07-06T23:31:28.167Z,99371.67
2018-07-06T23:33:58.970Z,99367.17
2018-07-06T23:36:29.762Z,99360.90
2018-07-06T23:39:00.277Z,99363.70
2018-07-06T23:41:31.201Z,99369.24
2018-07-06T23:44:01.961Z,99375.75
2018-07-06T23:46:32.741Z,99371.77
2018-07-06T23:49:02.902Z,99367.05
2018-07-06T23:51:33.423Z,99368.37
2018-07-06T23:54:04.098Z,99372.62
2018-07-06T23:56:34.753Z,99379.58
2018-07-06T23:59:05.160Z,99372.80
